Boothville, Louisiana
Current Conditions -  °F | °C
As of 9:17 AM on Saturday 22 Nov 2014 (Local Time) from K1B7 Reporting Station
Scattered Clouds Scattered Clouds  
Wind Chill: 66°   Ceiling: Unl
Heat Index: 66°   Visibility: 10mi
Dew Point: 63°   Wind: 10mph
Humidity: 88%   Direction: 110°ESE
Pressure: 30.21"   Gusts: NA
Location:  29.34°N, 89.42°W
Report Text: K1B7 221517Z 11009KT 10SM SCT050 19/17 A3021
Loading
Personal Weather Stations






























Interactive Weather Map New forecast layout! Learn more

10-Day Weather Forecast

Advertisements
Track Severe Weather on mobile